createdAt,value
2019-04-04T00:02:01.287Z,7.90
2019-04-04T00:07:06.761Z,7.90
2019-04-04T00:12:12.012Z,7.90
2019-04-04T00:17:17.026Z,7.80
2019-04-04T00:22:21.112Z,7.80
2019-04-04T00:27:25.283Z,7.80
2019-04-04T00:32:29.375Z,7.80
2019-04-04T00:37:36.088Z,7.80
2019-04-04T00:42:41.536Z,7.80
2019-04-04T00:47:46.571Z,7.80
2019-04-04T00:52:51.620Z,7.90
2019-04-04T00:57:56.973Z,7.80
2019-04-04T01:03:02.140Z,7.70
2019-04-04T01:08:07.526Z,7.80
2019-04-04T01:13:12.822Z,7.70
2019-04-04T01:18:17.955Z,7.80
2019-04-04T01:23:22.845Z,7.70
2019-04-04T01:28:28.956Z,7.60
2019-04-04T01:33:34.012Z,7.70
2019-04-04T01:38:39.138Z,7.70
2019-04-04T01:43:44.502Z,7.60
2019-04-04T01:48:50.602Z,7.50
2019-04-04T01:53:55.659Z,7.40
2019-04-04T01:59:00.888Z,7.50
2019-04-04T02:04:05.867Z,7.40
2019-04-04T02:09:10.977Z,7.40
2019-04-04T02:14:15.954Z,7.50
2019-04-04T02:19:20.933Z,7.40
2019-04-04T02:24:26.347Z,7.40
2019-04-04T02:29:30.852Z,7.50
2019-04-04T02:34:37.976Z,7.40
2019-04-04T02:39:43.715Z,7.40
2019-04-04T02:44:49.989Z,7.40
2019-04-04T02:49:55.038Z,7.40
2019-04-04T02:55:00.079Z,7.50
2019-04-04T03:00:06.414Z,7.50
2019-04-04T03:05:12.086Z,7.40
2019-04-04T03:10:16.999Z,7.50
2019-04-04T03:15:22.527Z,7.50
2019-04-04T03:20:27.711Z,7.60
2019-04-04T03:25:32.637Z,7.60
2019-04-04T03:30:37.681Z,7.50
2019-04-04T03:35:42.598Z,7.60
2019-04-04T03:40:45.963Z,7.50
2019-04-04T03:45:49.485Z,7.50
2019-04-04T03:50:56.708Z,7.50
2019-04-04T03:56:01.287Z,7.40
2019-04-04T04:01:06.544Z,7.40
2019-04-04T04:06:21.473Z,7.20
2019-04-04T04:11:30.673Z,7.20
2019-04-04T04:16:36.209Z,7.20
2019-04-04T04:21:43.377Z,7.30
2019-04-04T04:26:47.429Z,7.20
2019-04-04T04:31:51.983Z,7.20
2019-04-04T04:36:57.559Z,7.30
2019-04-04T04:42:02.638Z,7.20
2019-04-04T04:47:06.910Z,7.20
2019-04-04T04:52:12.247Z,7.20
2019-04-04T04:57:29.588Z,7.20
2019-04-04T05:02:26.246Z,7.20
2019-04-04T05:07:40.681Z,7.20
2019-04-04T05:18:14.169Z,7.20
2019-04-04T05:23:19.737Z,7.20
2019-04-04T05:28:25.552Z,7.20
2019-04-04T05:33:38.076Z,7.30
2019-04-04T05:38:46.895Z,7.30
2019-04-04T05:43:57.455Z,7.20
2019-04-04T05:49:13.446Z,7.30
2019-04-04T05:54:18.773Z,7.30
2019-04-04T05:59:24.382Z,7.30
2019-04-04T06:04:55.430Z,7.30
2019-04-04T06:10:03.118Z,7.40
2019-04-04T06:20:24.226Z,7.40
2019-04-04T06:25:34.183Z,7.40
2019-04-04T06:30:43.164Z,7.40
2019-04-04T06:35:54.814Z,7.40
2019-04-04T06:41:00.829Z,7.40
2019-04-04T06:46:05.561Z,7.40
2019-04-04T06:51:09.962Z,7.50
2019-04-04T06:56:14.938Z,7.40
2019-04-04T07:01:38.592Z,7.50
2019-04-04T07:06:45.174Z,7.50
2019-04-04T07:11:49.762Z,7.60
2019-04-04T07:16:54.334Z,7.50
2019-04-04T07:21:59.219Z,7.50
2019-04-04T07:27:03.608Z,7.50
2019-04-04T07:32:09.550Z,7.50
2019-04-04T07:37:14.731Z,7.50
2019-04-04T07:42:41.833Z,7.50
2019-04-04T07:47:47.777Z,7.60
2019-04-04T07:52:54.506Z,7.50
2019-04-04T07:57:59.480Z,7.60
2019-04-04T08:03:14.351Z,7.60
2019-04-04T08:08:21.275Z,7.50
2019-04-04T08:13:27.054Z,7.70
2019-04-04T08:18:32.079Z,7.60
2019-04-04T08:23:37.029Z,7.60
2019-04-04T08:28:41.940Z,7.70
2019-04-04T08:33:47.423Z,7.60
2019-04-04T08:38:55.960Z,7.50
2019-04-04T08:44:01.147Z,7.30
2019-04-04T08:49:05.238Z,7.40
2019-04-04T08:54:11.041Z,7.40
2019-04-04T08:59:36.624Z,7.50
2019-04-04T09:04:41.964Z,7.40
2019-04-04T09:09:46.971Z,7.40
2019-04-04T09:14:52.677Z,7.50
2019-04-04T09:19:57.853Z,7.50
2019-04-04T09:25:04.164Z,7.50
2019-04-04T09:30:11.473Z,7.50
2019-04-04T09:35:17.022Z,7.50
2019-04-04T09:40:21.920Z,7.50
2019-04-04T09:45:27.028Z,7.60
2019-04-04T09:50:32.209Z,7.50
2019-04-04T09:55:38.376Z,7.60
2019-04-04T10:00:44.344Z,7.60
2019-04-04T10:05:47.749Z,7.60
2019-04-04T10:10:51.226Z,7.60
2019-04-04T10:15:55.718Z,7.70
2019-04-04T10:21:11.271Z,7.70
2019-04-04T10:26:05.718Z,7.70
2019-04-04T10:31:09.659Z,7.60
2019-04-04T10:36:15.577Z,7.70
2019-04-04T10:41:20.968Z,7.70
2019-04-04T10:46:25.631Z,7.70
2019-04-04T10:51:30.207Z,7.80
2019-04-04T10:56:34.837Z,7.80
2019-04-04T11:01:40.858Z,7.70
2019-04-04T11:06:45.058Z,7.60
2019-04-04T11:11:49.611Z,7.80
2019-04-04T11:16:54.044Z,7.70
2019-04-04T11:21:58.414Z,7.70
2019-04-04T11:27:02.790Z,7.80
2019-04-04T11:32:07.163Z,7.80
2019-04-04T11:37:12.873Z,7.90
2019-04-04T11:42:17.965Z,7.90
2019-04-04T11:47:23.276Z,7.90
2019-04-04T11:52:40.171Z,7.90
2019-04-04T11:57:45.725Z,7.90
2019-04-04T12:02:50.732Z,8.10
2019-04-04T12:07:56.072Z,8.00
2019-04-04T12:13:01.876Z,8.00
2019-04-04T12:18:08.669Z,8.00
2019-04-04T12:23:13.600Z,8.00
2019-04-04T12:28:18.703Z,8.10
2019-04-04T12:33:23.931Z,8.00
2019-04-04T12:38:29.655Z,7.90
2019-04-04T12:43:34.724Z,7.90
2019-04-04T12:48:39.829Z,7.70
2019-04-04T12:53:44.474Z,7.70
2019-04-04T12:58:50.488Z,7.70
2019-04-04T13:03:55.661Z,7.80
2019-04-04T13:09:01.742Z,7.80
2019-04-04T13:14:08.805Z,7.80
2019-04-04T13:19:15.593Z,7.90
2019-04-04T13:24:20.591Z,8.00
2019-04-04T13:29:26.002Z,7.90
2019-04-04T13:34:31.157Z,8.00
2019-04-04T13:39:36.232Z,8.00
2019-04-04T13:44:41.523Z,8.00
2019-04-04T13:49:46.991Z,7.90
2019-04-04T13:54:55.647Z,8.10
2019-04-04T14:00:00.076Z,8.00
2019-04-04T14:05:10.101Z,8.00
2019-04-04T14:10:17.040Z,8.00
2019-04-04T14:15:21.336Z,7.90
2019-04-04T14:20:27.453Z,7.90
2019-04-04T14:25:32.563Z,8.00
2019-04-04T14:30:37.367Z,8.00
2019-04-04T14:35:42.364Z,8.10
2019-04-04T14:40:48.107Z,8.30
2019-04-04T14:45:53.614Z,8.40
2019-04-04T14:50:57.258Z,8.50
2019-04-04T14:56:01.515Z,8.40
2019-04-04T15:01:05.366Z,8.40
2019-04-04T15:06:10.103Z,8.40
2019-04-04T15:11:23.940Z,8.40
2019-04-04T15:16:20.845Z,8.40
2019-04-04T15:21:25.384Z,8.40
2019-04-04T15:26:29.992Z,8.30
2019-04-04T15:31:34.598Z,8.20
2019-04-04T15:36:38.236Z,8.20
2019-04-04T15:41:41.728Z,8.20
2019-04-04T15:46:46.053Z,8.20
2019-04-04T15:51:50.163Z,8.20
2019-04-04T15:56:54.360Z,8.30
2019-04-04T16:02:00.176Z,8.30
2019-04-04T16:07:06.015Z,8.40
2019-04-04T16:12:10.121Z,8.30
2019-04-04T16:17:14.478Z,8.40
2019-04-04T16:22:18.698Z,8.60
2019-04-04T16:27:23.984Z,8.70
2019-04-04T16:32:29.146Z,8.70
2019-04-04T16:37:36.543Z,8.80
2019-04-04T16:42:41.657Z,8.80
2019-04-04T16:47:47.130Z,8.80
2019-04-04T16:52:53.002Z,8.80
2019-04-04T16:57:58.623Z,8.80
2019-04-04T17:03:03.980Z,8.70
2019-04-04T17:08:09.170Z,8.80
2019-04-04T17:13:14.684Z,8.80
2019-04-04T17:18:20.262Z,8.90
2019-04-04T17:23:25.702Z,8.80
2019-04-04T17:28:31.928Z,8.80
2019-04-04T17:33:36.935Z,8.70
2019-04-04T17:38:42.584Z,8.70
2019-04-04T17:43:48.265Z,8.70
2019-04-04T17:48:54.006Z,8.60
2019-04-04T17:54:00.554Z,8.60
2019-04-04T17:59:05.631Z,8.60
2019-04-04T18:04:10.702Z,8.60
2019-04-04T18:09:16.161Z,8.30
2019-04-04T18:14:21.453Z,8.30
2019-04-04T18:19:26.940Z,8.30
2019-04-04T18:24:32.439Z,8.40
2019-04-04T18:29:37.300Z,8.20
2019-04-04T18:34:42.963Z,8.20
2019-04-04T18:39:48.596Z,8.30
2019-04-04T18:44:54.585Z,8.20
2019-04-04T18:50:01.171Z,8.20
2019-04-04T18:55:18.756Z,8.30
2019-04-04T19:00:14.405Z,8.20
2019-04-04T19:05:20.083Z,8.20
2019-04-04T19:10:26.429Z,8.20
2019-04-04T19:15:31.920Z,8.20
2019-04-04T19:20:38.259Z,8.20
2019-04-04T19:25:43.357Z,8.20
2019-04-04T19:30:48.901Z,8.20
2019-04-04T19:35:55.323Z,8.20
2019-04-04T19:40:59.566Z,8.20
2019-04-04T19:46:04.154Z,8.20
2019-04-04T19:51:08.630Z,8.10
2019-04-04T19:56:12.982Z,8.10
2019-04-04T20:01:17.286Z,8.10
2019-04-04T20:06:23.224Z,8.10
2019-04-04T20:11:27.748Z,8.10
2019-04-04T20:16:32.164Z,8.00
2019-04-04T20:21:36.900Z,8.00
2019-04-04T20:26:41.116Z,7.90
2019-04-04T20:31:46.481Z,7.90
2019-04-04T20:36:51.665Z,7.90
2019-04-04T20:41:55.792Z,7.90
2019-04-04T20:47:00.222Z,7.90
2019-04-04T20:52:04.606Z,7.90
2019-04-04T20:57:08.675Z,7.90
2019-04-04T21:02:13.043Z,8.00
2019-04-04T21:07:17.370Z,7.90
2019-04-04T21:12:21.885Z,7.90
2019-04-04T21:17:26.098Z,7.90
2019-04-04T21:22:31.954Z,7.90
2019-04-04T21:27:37.360Z,7.80
2019-04-04T21:32:43.190Z,7.80
2019-04-04T21:37:48.284Z,7.90
2019-04-04T21:42:53.362Z,7.90
2019-04-04T21:47:58.642Z,7.90
2019-04-04T21:58:29.762Z,7.80
2019-04-04T22:03:36.825Z,7.80
2019-04-04T22:08:42.120Z,7.90
2019-04-04T22:13:47.214Z,7.90
2019-04-04T22:18:52.224Z,7.80
2019-04-04T22:23:57.167Z,7.80
2019-04-04T22:29:02.486Z,7.80
2019-04-04T22:34:07.766Z,7.80
2019-04-04T22:39:12.921Z,7.80
2019-04-04T22:44:17.982Z,7.80
2019-04-04T22:49:23.066Z,7.70
2019-04-04T22:54:28.279Z,7.60
2019-04-04T22:59:35.098Z,7.70
2019-04-04T23:04:39.916Z,7.70
2019-04-04T23:09:44.968Z,7.70
2019-04-04T23:14:49.824Z,7.70
2019-04-04T23:19:54.880Z,7.60
2019-04-04T23:24:59.880Z,7.70
2019-04-04T23:30:07.760Z,7.60
2019-04-04T23:35:12.739Z,7.60
2019-04-04T23:40:17.692Z,7.60
2019-04-04T23:45:22.739Z,7.60
2019-04-04T23:50:29.398Z,7.60
2019-04-04T23:55:34.486Z,7.60
